Latest Weather Observations for Cobar

IDN60801

Issued at 4:05 pm EDT Sunday 26 October 2014 (issued every 30 minutes, with the page automatically refreshed every 10 minutes)

About weather observations | Map of weather stations | Latest weather observations for NSW | Other Formats
Station Details ID: 048027 Name: COBAR MO Lat: -31.48 Lon: 145.83 Height: 260.0 m
Data from the previous 72 hours. | See also: Recent months at Cobar
Date/Time
EDT
Temp
°C
App
Temp
°C
Dew
Point
Rel
Hum
%
Delta-T
°C
Wind Press
QNH
hPa
Press
MSL
hPa
Rain
since 9 am
mm
Dir
 
Spd
km/h
Gust
km/h
Spd
kts
Gust
kts
26/04:00pm 37.3 28.7 -8.1 5 20.3 WSW 30 52 16 28 1010.0 1009.2 0.0
26/03:49pm 37.6 29.3 -9.1 5 20.6 WSW 28 46 15 25 1010.1 - 0.0
26/03:30pm 37.9 29.7 -7.7 5 20.6 SSW 28 39 15 21 1010.4 - 0.0
26/03:00pm 36.9 30.0 -6.3 6 19.8 SSW 22 37 12 20 1010.5 1009.8 0.0
26/02:30pm 37.1 29.2 -8.3 5 20.2 WSW 26 39 14 21 1010.8 - 0.0
26/02:08pm 37.1 28.9 -8.3 5 20.2 SW 28 46 15 25 1011.0 - 0.0
26/02:00pm 36.7 30.1 -7.2 6 19.8 SW 20 35 11 19 1011.1 - 0.0
26/01:30pm 35.9 27.7 -7.8 6 19.4 SW 28 39 15 21 1011.7 - 0.0
26/01:00pm 35.6 28.0 -9.2 5 19.4 WSW 24 37 13 20 1012.1 1011.4 0.0
26/12:30pm 35.1 28.6 -5.6 7 18.6 WSW 20 28 11 15 1012.4 - 0.0
26/12:00pm 34.1 26.7 -6.9 7 18.2 W 24 41 13 22 1012.9 1012.1 0.0
26/11:30am 34.1 27.8 -3.8 8 17.7 WSW 20 28 11 15 1013.1 - 0.0
26/11:00am 33.7 27.5 -2.9 9 17.3 WSW 20 32 11 17 1013.5 - 0.0
26/10:30am 32.2 27.2 -1.4 11 16.1 SW 15 20 8 11 1013.8 - 0.0
26/10:00am 31.7 27.6 0.0 13 15.5 WSW 11 17 6 9 1013.5 1012.7 0.0
26/09:30am 30.4 25.8 -0.7 13 14.9 SW 13 17 7 9 1013.4 - 0.0
26/09:00am 29.0 25.1 0.9 16 13.7 SW 11 13 6 7 1013.3 1012.5 0.0
26/08:30am 27.9 24.8 1.6 18 12.9 S 7 9 4 5 1012.9 - 0.0
26/08:00am 25.7 23.1 3.1 23 11.2 SW 6 7 3 4 1012.9 - 0.0
26/07:30am 23.0 20.4 4.4 29 9.3 SW 7 9 4 5 1012.8 - 0.0
26/07:00am 20.3 17.8 4.7 36 7.7 S 7 9 4 5 1012.3 1011.6 0.0
26/06:30am 23.0 21.3 1.7 24 10.1 CALM 0 0 0 0 1012.0 - 0.0
26/06:00am 21.8 20.7 5.3 34 8.3 ENE 0 0 0 0 1011.8 1011.1 0.0
26/05:30am 22.4 21.1 4.3 30 9.0 CALM 0 4 0 2 1012.0 - 0.0
26/05:00am 24.5 22.1 4.2 27 10.2 S 6 7 3 4 1012.3 - 0.0
26/04:30am 25.1 22.5 3.0 23 10.9 S 6 7 3 4 1012.3 - 0.0
26/04:14am 24.3 21.8 4.8 28 9.9 S 7 9 4 5 1012.4 - 0.0
26/04:00am 23.8 21.5 4.8 29 9.6 S 6 7 3 4 1012.4 1011.7 0.0
26/03:58am 24.5 22.9 6.3 31 9.5 S 4 7 2 4 1012.4 - 0.0
26/03:30am 25.5 22.9 4.4 25 10.7 S 7 9 4 5 1012.6 - 0.0
26/03:00am 26.3 24.0 5.5 26 10.8 S 7 9 4 5 1012.9 1012.1 0.0
26/02:30am 26.2 23.3 4.4 24 11.1 S 9 13 5 7 1013.2 - 0.0
26/02:00am 25.5 23.4 6.5 29 10.0 SSW 7 11 4 6 1013.5 - 0.0
26/01:30am 27.2 24.1 3.4 21 12.0 SSW 9 13 5 7 1013.7 - 0.0
26/01:00am 26.5 23.9 4.3 24 11.3 SW 7 11 4 6 1013.9 1013.2 0.0
26/12:30am 26.6 24.9 5.8 26 10.9 SSW 4 9 2 5 1013.9 - 0.0
26/12:00am 27.8 25.4 4.5 22 12.0 WSW 6 11 3 6 1014.0 1013.3 0.0
 
Date/Time
EDT
Temp
°C
App
Temp
°C
Dew
Point
Rel
Hum
%
Delta-T
°C
Wind Press
QNH
hPa
Press
MSL
hPa
Rain
since 9 am
mm
Dir
 
Spd
km/h
Gust
km/h
Spd
kts
Gust
kts
25/11:30pm 28.6 26.0 6.3 24 11.9 NNW 9 15 5 8 1014.2 - 0.0
25/11:00pm 30.3 26.4 3.4 18 13.8 NNW 13 22 7 12 1014.4 - 0.0
25/10:30pm 29.5 25.8 2.4 17 13.6 N 11 17 6 9 1014.2 - 0.0
25/10:00pm 29.6 25.6 2.7 18 13.6 N 13 17 7 9 1013.8 1013.1 0.0
25/09:30pm 30.3 26.7 2.7 17 14.0 NE 11 13 6 7 1013.5 - 0.0
25/09:00pm 31.7 28.7 3.9 17 14.5 ESE 9 15 5 8 1013.7 1013.0 0.0
25/08:30pm 31.9 28.2 2.2 15 15.1 S 11 13 6 7 1014.0 - 0.0
25/08:00pm 32.3 29.1 3.1 15 15.1 ESE 9 11 5 6 1012.8 - 0.0
25/07:30pm 33.3 29.1 1.6 13 16.1 SE 13 19 7 10 1012.4 - 0.0
25/07:00pm 34.1 28.5 -0.2 11 17.0 SSE 19 30 10 16 1012.1 1011.4 0.0
25/06:30pm 36.1 29.2 -2.6 8 18.7 W 24 41 13 22 1012.2 - 0.0
25/06:00pm 36.3 28.1 -4.2 7 19.1 WNW 30 48 16 26 1011.5 1010.8 0.0
25/05:42pm 36.2 28.4 -3.4 8 18.9 WNW 28 46 15 25 1011.5 - 0.0
25/05:30pm 37.3 31.6 -4.1 7 19.7 W 17 24 9 13 1011.3 - 0.0
25/05:00pm 38.2 32.0 -5.0 6 20.4 SW 19 32 10 17 1011.1 - 0.0
25/04:30pm 37.6 31.1 -5.5 6 20.1 W 20 30 11 16 1011.3 - 0.0
25/04:00pm 37.4 29.7 -6.3 6 20.1 WSW 26 28 14 15 1011.6 1010.9 0.0
25/03:30pm 37.8 29.1 -9.9 4 20.8 W 30 43 16 23 1011.9 - 0.0
25/03:00pm 38.7 30.6 -11.4 4 21.5 WSW 26 39 14 21 1012.3 1011.6 0.0
25/02:30pm 36.9 30.5 -4.5 7 19.5 SW 20 33 11 18 1013.1 - 0.0
25/02:00pm 38.7 32.4 -3.9 6 20.5 W 20 28 11 15 1013.6 - 0.0
25/01:30pm 38.0 33.0 -1.3 8 19.6 NW 15 26 8 14 1014.1 - 0.0
25/01:00pm 38.4 33.9 -0.6 8 19.7 NW 13 20 7 11 1014.7 1014.0 0.0
25/12:30pm 37.1 31.1 -1.6 8 19.1 W 20 32 11 17 1015.3 - 0.0
25/12:00pm 35.9 29.7 -3.4 8 18.7 N 20 32 11 17 1015.7 1015.0 0.0
25/11:30am 36.0 31.2 -0.1 10 18.1 N 15 24 8 13 1016.1 - 0.0
25/11:00am 35.8 31.0 -2.7 8 18.5 NNE 13 20 7 11 1016.4 - 0.0
25/10:30am 34.6 29.5 -1.8 10 17.6 NNE 15 20 8 11 1016.7 - 0.0
25/10:00am 32.9 27.7 -2.9 10 16.8 ENE 15 22 8 12 1016.8 1016.0 0.0
25/09:30am 30.3 24.4 -2.0 12 15.1 NE 19 24 10 13 1016.7 - 0.0
25/09:00am 30.7 25.2 -1.8 12 15.3 ENE 17 24 9 13 1016.8 1016.0 0.0
25/08:30am 28.4 22.9 -2.4 13 14.1 ENE 17 22 9 12 1016.6 - 0.0
25/08:00am 25.8 20.7 -1.7 16 12.5 ENE 15 20 8 11 1016.3 - 0.0
25/07:30am 25.0 20.3 -1.5 17 12.0 ENE 13 17 7 9 1016.0 - 0.0
25/07:00am 23.4 19.2 -0.9 20 11.0 ENE 11 13 6 7 1015.8 1015.1 0.0
25/06:30am 22.3 18.7 0.7 24 10.0 ENE 9 13 5 7 1015.7 - 0.0
25/06:00am 21.2 18.1 1.4 27 9.2 NE 7 9 4 5 1015.5 1014.8 0.0
25/05:30am 21.9 18.1 1.7 26 9.5 E 11 13 6 7 1015.2 - 0.0
25/05:00am 22.4 18.6 1.6 25 9.8 E 11 13 6 7 1015.0 - 0.0
25/04:30am 23.4 20.0 2.1 24 10.2 E 9 11 5 6 1014.9 - 0.0
25/04:00am 24.0 20.7 2.6 24 10.4 E 9 11 5 6 1014.8 1014.1 0.0
25/03:30am 24.5 23.0 3.2 25 10.5 CALM 0 0 0 0 1015.0 - 0.0
25/03:00am 22.7 21.3 3.5 28 9.4 CALM 0 6 0 3 1015.0 1014.3 0.0
25/02:30am 26.3 23.6 2.9 22 11.6 S 6 7 3 4 1015.1 - 0.0
25/02:00am 25.8 24.4 3.6 24 11.1 CALM 0 0 0 0 1015.4 - 0.0
25/01:30am 25.1 24.0 4.9 27 10.3 CALM 0 0 0 0 1015.7 - 0.0
25/01:00am 24.9 23.8 4.9 27 10.2 CALM 0 0 0 0 1015.9 1015.2 0.0
25/12:30am 26.0 23.5 4.6 25 10.9 W 7 11 4 6 1016.1 - 0.0
25/12:00am 25.7 22.5 3.1 23 11.2 NW 9 9 5 5 1016.2 1015.5 0.0
 
Date/Time
EDT
Temp
°C
App
Temp
°C
Dew
Point
Rel
Hum
%
Delta-T
°C
Wind Press
QNH
hPa
Press
MSL
hPa
Rain
since 9 am
mm
Dir
 
Spd
km/h
Gust
km/h
Spd
kts
Gust
kts
24/11:36pm 26.5 23.3 2.9 21 11.7 WNW 9 13 5 7 1016.3 - 0.0
24/11:30pm 26.3 23.2 3.6 23 11.4 WNW 9 11 5 6 1016.3 - 0.0
24/11:12pm 26.7 23.5 3.0 21 11.8 WNW 9 11 5 6 1016.4 - 0.0
24/11:01pm 27.4 23.4 0.8 17 12.8 WNW 11 17 6 9 1016.4 - 0.0
24/11:00pm 27.6 23.6 0.8 17 12.9 WNW 11 17 6 9 1016.4 - 0.0
24/10:30pm 27.9 23.9 0.3 16 13.2 WNW 11 13 6 7 1016.3 - 0.0
24/10:00pm 28.7 24.6 -0.3 15 13.8 WNW 11 15 6 8 1016.3 1015.6 0.0
24/09:48pm 28.8 24.8 0.4 16 13.7 WNW 11 13 6 7 1016.3 - 0.0
24/09:30pm 29.4 25.4 0.2 15 14.1 WNW 11 17 6 9 1016.1 - 0.0
24/09:00pm 30.4 26.4 0.5 14 14.6 W 11 15 6 8 1015.7 1015.0 0.0
24/08:30pm 31.3 27.2 -0.2 13 15.3 W 11 13 6 7 1015.3 - 0.0
24/08:00pm 31.9 27.8 -0.4 12 15.7 W 11 17 6 9 1014.9 - 0.0
24/07:30pm 32.8 27.4 -1.6 11 16.5 WSW 17 26 9 14 1014.3 - 0.0
24/07:00pm 33.7 28.2 -5.2 8 17.7 W 15 20 8 11 1013.8 1013.1 0.0
24/06:30pm 33.9 28.7 -6.4 7 18.0 W 13 20 7 11 1013.5 - 0.0
24/06:00pm 34.3 27.5 -9.0 6 18.6 WSW 20 28 11 15 1013.4 1012.6 0.0
24/05:30pm 34.7 25.5 -11.2 5 19.1 SW 32 39 17 21 1013.2 - 0.0
24/05:00pm 35.3 27.3 -9.9 5 19.3 WSW 26 46 14 25 1013.0 - 0.0
24/04:51pm 35.4 27.0 -10.2 5 19.4 WSW 28 46 15 25 1012.9 - 0.0
24/04:30pm 35.7 29.3 -5.2 7 18.9 WSW 20 30 11 16 1013.0 - 0.0
24/04:13pm 35.2 27.2 -5.9 7 18.7 WSW 28 46 15 25 1013.1 - 0.0
24/04:00pm 35.6 26.8 -10.1 5 19.5 W 30 41 16 22 1013.0 1012.2 0.0
24/03:34pm 36.5 28.1 -10.6 4 20.1 W 28 46 15 25 1012.9 - 0.0
24/03:30pm 36.5 27.3 -11.6 4 20.2 W 32 46 17 25 1013.0 - 0.0
24/03:00pm 37.1 28.3 -16.7 3 21.0 WSW 28 37 15 20 1013.1 1012.3 0.0
24/02:30pm 36.3 27.3 -13.9 3 20.3 W 30 48 16 26 1013.2 - 0.0
24/02:19pm 36.8 28.3 -11.8 4 20.4 W 28 46 15 25 1013.4 - 0.0
24/02:00pm 36.6 27.5 -10.2 4 20.1 W 32 46 17 25 1013.5 - 0.0
24/01:30pm 37.7 29.4 -8.8 5 20.6 W 28 54 15 29 1013.9 - 0.0
24/01:00pm 36.7 27.5 -10.6 4 20.2 W 32 50 17 27 1014.0 1013.3 0.0
24/12:33pm 36.8 27.6 -10.9 4 20.3 WNW 32 56 17 30 1014.3 - 0.0
24/12:30pm 37.3 29.1 -8.4 5 20.3 WNW 28 41 15 22 1014.3 - 0.0
24/12:00pm 36.9 29.5 -3.9 7 19.4 NNW 26 37 14 20 1014.6 1013.9 0.0
24/11:30am 35.8 29.8 -3.2 8 18.6 WNW 19 30 10 16 1015.1 - 0.0
24/11:00am 35.7 29.9 -1.4 9 18.2 NW 19 26 10 14 1015.3 - 0.0
24/10:30am 34.7 29.3 -1.0 10 17.5 NNW 17 24 9 13 1015.2 - 0.0
24/10:00am 32.7 27.0 0.4 12 16.0 N 20 33 11 18 1015.1 1014.4 0.0
24/09:30am 31.7 26.0 0.8 14 15.3 N 20 30 11 16 1015.2 - 0.0
24/09:00am 29.1 24.2 1.9 17 13.5 N 17 24 9 13 1015.3 1014.6 0.0
24/08:30am 27.3 21.8 1.7 19 12.5 N 20 26 11 14 1015.4 - 0.0
24/08:00am 25.3 20.4 2.3 22 11.2 N 17 20 9 11 1015.4 - 0.0
24/07:30am 23.4 19.0 2.8 26 10.0 N 15 22 8 12 1015.3 - 0.0
24/07:00am 21.5 17.2 3.0 29 8.9 N 15 19 8 10 1015.1 1014.4 0.0
24/06:30am 21.5 17.6 3.3 30 8.8 N 13 17 7 9 1014.9 - 0.0
24/06:00am 21.7 17.8 3.6 30 8.8 N 13 15 7 8 1014.7 1014.0 0.0
24/05:30am 22.6 18.7 3.6 29 9.3 N 13 19 7 10 1014.4 - 0.0
24/05:00am 23.3 18.3 3.6 27 9.7 NNE 19 24 10 13 1014.4 - 0.0
24/04:30am 23.2 19.0 3.7 28 9.6 NNE 15 20 8 11 1014.3 - 0.0
24/04:00am 23.8 19.2 3.9 27 9.9 NNE 17 22 9 12 1014.3 1013.6 0.0
24/03:30am 24.0 19.4 3.6 26 10.1 NNE 17 22 9 12 1014.2 - 0.0
24/03:00am 24.6 19.9 3.4 25 10.5 NNE 17 24 9 13 1014.5 1013.8 0.0
24/02:30am 24.9 20.2 3.3 24 10.7 NE 17 22 9 12 1014.7 - 0.0
24/02:00am 25.0 20.3 3.1 24 10.8 NE 17 22 9 12 1015.0 - 0.0
24/01:30am 25.4 20.7 2.9 23 11.1 NE 17 24 9 13 1015.2 - 0.0
24/01:00am 25.6 20.7 2.2 22 11.4 NE 17 20 9 11 1015.4 1014.7 0.0
24/12:30am 26.1 21.2 1.8 20 11.8 ENE 17 22 9 12 1015.5 - 0.0
24/12:00am 25.7 21.1 1.3 20 11.7 ENE 15 19 8 10 1015.7 1015.0 0.0
 
Date/Time
EDT
Temp
°C
App
Temp
°C
Dew
Point
Rel
Hum
%
Delta-T
°C
Wind Press
QNH
hPa
Press
MSL
hPa
Rain
since 9 am
mm
Dir
 
Spd
km/h
Gust
km/h
Spd
kts
Gust
kts
23/11:30pm 26.5 21.8 1.1 19 12.2 NE 15 17 8 9 1015.6 - 0.0
23/11:00pm 27.4 22.7 1.2 18 12.7 NNE 15 19 8 10 1015.5 - 0.0
23/10:30pm 27.4 22.8 1.6 19 12.6 NNE 15 17 8 9 1015.4 - 0.0
23/10:00pm 27.3 22.8 2.1 19 12.4 NNE 15 17 8 9 1015.3 1014.6 0.0
23/09:30pm 27.8 23.7 2.1 19 12.7 NNE 13 15 7 8 1015.0 - 0.0
23/09:00pm 28.5 24.4 2.1 18 13.1 NE 13 15 7 8 1014.7 1014.0 0.0
23/08:30pm 29.3 25.6 2.4 18 13.5 NNE 11 11 6 6 1014.5 - 0.0
23/08:00pm 30.4 26.7 2.6 17 14.1 NNE 11 13 6 7 1014.2 - 0.0
23/07:30pm 31.7 28.3 2.1 15 15.0 NNE 9 13 5 7 1014.0 - 0.0
23/07:00pm 33.0 30.0 2.0 14 15.8 NE 7 9 4 5 1013.9 1013.2 0.0
23/06:30pm 33.2 29.7 1.3 13 16.1 NNE 9 15 5 8 1013.8 - 0.0
23/06:00pm 33.9 29.6 1.0 12 16.6 NW 13 24 7 13 1013.8 1013.1 0.0
23/05:30pm 34.8 32.3 3.6 14 16.5 NNW 6 13 3 7 1013.7 - 0.0
23/05:00pm 34.3 30.7 0.3 11 17.0 W 9 15 5 8 1013.8 - 0.0
23/04:30pm 35.2 29.2 -1.4 9 17.9 NNW 20 28 11 15 1014.0 - 0.0

Other Formats:

Comma delimited format used in spreadsheet applications
http://www.bom.gov.au/fwo/IDN60801/IDN60801.94711.axf

JavaScript Object Notation format (JSON) in row-major order
http://www.bom.gov.au/fwo/IDN60801/IDN60801.94711.json